Time;durP1;ratioP1;P1;durP2;ratioP2;P2;SDS_P1;SDS_P2;PMS_P1;PMS_P2;Temp;Humidity;BMP_temperature;BMP_pressure;BME280_temperature;BME280_humidity;BME280_pressure;Samples;Min_cycle;Max_cycle;Signal;HPM_P1;HPM_P2
2022/04/28 00:02:12;;;;;;;12.17;5.20;;;;;;;4.20;100.00;102323.97;5006546;28;20088;-69
2022/04/28 00:04:38;;;;;;;15.80;5.25;;;;;;;4.18;100.00;102315.25;5019401;28;20025;-70
2022/04/28 00:07:03;;;;;;;24.60;5.43;;;;;;;4.16;100.00;102311.84;5005481;28;20513;-70
2022/04/28 00:09:29;;;;;;;12.85;5.95;;;;;;;4.08;100.00;102311.41;5018542;28;20025;-70
2022/04/28 00:11:54;;;;;;;17.00;6.40;;;;;;;4.04;100.00;102317.78;5015555;28;20042;-69
2022/04/28 00:14:20;;;;;;;17.90;6.50;;;;;;;3.98;100.00;102326.03;5019962;28;20034;-69
2022/04/28 00:16:46;;;;;;;19.90;5.95;;;;;;;3.96;100.00;102334.06;5028104;28;20034;-69
2022/04/28 00:19:11;;;;;;;14.35;6.10;;;;;;;3.94;100.00;102333.28;5017912;28;20110;-70
2022/04/28 00:21:37;;;;;;;12.90;6.03;;;;;;;3.92;100.00;102324.59;5017301;28;20040;-70
2022/04/28 00:24:02;;;;;;;18.67;5.83;;;;;;;3.89;100.00;102318.63;5017083;28;20304;-70
2022/04/28 00:26:28;;;;;;;21.48;5.85;;;;;;;3.90;100.00;102322.97;5019563;28;20035;-70
2022/04/28 00:28:53;;;;;;;19.30;7.90;;;;;;;3.88;100.00;102324.81;5015970;28;20025;-70
2022/04/28 00:31:18;;;;;;;22.53;8.00;;;;;;;3.85;100.00;102327.63;5019174;28;20393;-70
2022/04/28 00:33:45;;;;;;;16.90;6.33;;;;;;;3.78;100.00;102327.09;5006593;28;20188;-70
2022/04/28 00:36:10;;;;;;;;;;;;;;;3.74;100.00;102326.38;5018405;28;20049;-70
2022/04/28 00:38:35;;;;;;;;;;;;;;;3.71;100.00;102331.84;5018452;28;19920;-70
2022/04/28 00:41:02;;;;;;;13.73;5.00;;;;;;;3.68;100.00;102329.38;5011047;28;19917;-70
2022/04/28 00:43:31;;;;;;;13.80;6.22;;;;;;;3.64;100.00;102330.44;5015361;28;20025;-70
2022/04/28 00:45:57;;;;;;;13.90;5.70;;;;;;;3.59;100.00;102338.63;5010059;28;20073;-70
2022/04/28 00:51:08;;;;;;;18.08;7.70;;;;;;;3.59;100.00;102329.84;5001035;28;20049;-70
2022/04/28 00:53:36;;;;;;;15.57;6.25;;;;;;;3.57;100.00;102336.97;5014459;28;20028;-70
2022/04/28 00:56:04;;;;;;;16.00;6.65;;;;;;;3.55;100.00;102336.19;5004334;28;20038;-70
2022/04/28 00:58:29;;;;;;;15.82;6.00;;;;;;;3.50;100.00;102332.94;5003864;28;20022;-70
2022/04/28 01:00:56;;;;;;;12.90;7.28;;;;;;;3.45;100.00;102333.19;5015883;28;20033;-70
2022/04/28 01:03:21;;;;;;;;;;;;;;;3.47;100.00;102341.03;5004395;28;20068;-70
2022/04/28 01:05:47;;;;;;;;;;;;;;;3.45;100.00;102334.97;5016324;28;19917;-70
2022/04/28 01:08:13;;;;;;;15.88;5.60;;;;;;;3.41;100.00;102344.81;5017673;28;19971;-70
2022/04/28 01:10:38;;;;;;;14.88;7.45;;;;;;;3.40;100.00;102342.28;5000722;28;20064;-70
2022/04/28 01:13:04;;;;;;;17.60;6.77;;;;;;;3.39;100.00;102349.31;5004475;28;20022;-70
2022/04/28 01:16:01;;;;;;;16.83;5.70;;;;;;;3.37;100.00;102352.06;5034227;28;20092;-70
2022/04/28 01:18:26;;;;;;;17.15;6.55;;;;;;;3.35;100.00;102351.28;5010742;28;20105;-70
2022/04/28 01:20:52;;;;;;;24.33;7.00;;;;;;;3.33;100.00;102358.41;4997643;28;20430;-70
2022/04/28 01:23:18;;;;;;;16.70;6.00;;;;;;;3.29;100.00;102342.81;5017090;28;20026;-70
2022/04/28 01:25:44;;;;;;;13.35;6.20;;;;;;;3.26;100.00;102346.44;5017729;28;20029;-70
2022/04/28 01:28:11;;;;;;;19.52;6.82;;;;;;;3.19;100.00;102345.03;5005550;28;20507;-70
2022/04/28 01:30:37;;;;;;;19.77;7.07;;;;;;;3.22;100.00;102338.75;5017224;28;20044;-70
2022/04/28 01:33:05;;;;;;;18.08;7.43;;;;;;;3.19;100.00;102345.03;5017938;28;20046;-70
2022/04/28 01:35:31;;;;;;;14.55;6.50;;;;;;;3.17;100.00;102346.91;5010279;28;20116;-70
2022/04/28 01:37:57;;;;;;;20.52;7.30;;;;;;;3.14;100.00;102339.16;5019289;28;20518;-70
2022/04/28 01:40:23;;;;;;;18.48;6.85;;;;;;;3.11;100.00;102332.22;5010242;28;20025;-70
2022/04/28 01:42:49;;;;;;;18.08;7.30;;;;;;;3.06;100.00;102334.22;5018627;28;20028;-70
2022/04/28 01:45:16;;;;;;;17.40;6.28;;;;;;;3.06;100.00;102343.94;5009534;28;20164;-70
2022/04/28 01:48:05;;;;;;;20.42;7.03;;;;;;;3.04;100.00;102348.41;5000063;28;20597;-70
2022/04/28 01:56:49;;;;;;;20.45;7.22;;;;;;;2.91;100.00;102350.81;5017422;28;20044;-70
2022/04/28 01:59:38;;;;;;;13.23;7.20;;;;;;;2.95;100.00;102355.88;5007735;28;20044;-70
2022/04/28 02:02:39;;;;;;;19.48;6.80;;;;;;;2.91;100.00;102349.03;5004654;28;20068;-70
2022/04/28 02:05:07;;;;;;;17.85;7.65;;;;;;;2.92;100.00;102358.63;5008449;28;20068;-70
2022/04/28 02:07:32;;;;;;;13.00;6.68;;;;;;;2.88;100.00;102362.38;5020359;28;20314;-70
2022/04/28 02:09:58;;;;;;;14.88;7.00;;;;;;;2.87;100.00;102358.00;5014682;28;20038;-70
2022/04/28 02:12:25;;;;;;;14.13;6.80;;;;;;;2.82;100.00;102361.78;5020252;28;20037;-70
2022/04/28 02:15:09;;;;;;;17.15;8.00;;;;;;;2.79;100.00;102354.03;5018532;28;20131;-70
2022/04/28 02:17:55;;;;;;;17.50;7.70;;;;;;;2.80;100.00;102359.22;5018551;28;20314;-69
2022/04/28 02:20:20;;;;;;;20.37;7.57;;;;;;;2.81;100.00;102353.03;5005728;28;20200;-70
2022/04/28 02:22:47;;;;;;;20.55;8.20;;;;;;;2.79;100.00;102357.53;5017660;28;20029;-70
2022/04/28 02:25:12;;;;;;;18.63;8.33;;;;;;;2.80;100.00;102345.19;5018961;28;20061;-70
2022/04/28 02:27:38;;;;;;;17.87;8.00;;;;;;;2.82;100.00;102344.19;5020982;28;20091;-70
2022/04/28 02:30:05;;;;;;;21.77;7.97;;;;;;;2.79;100.00;102351.41;5017411;28;20501;-70
2022/04/28 02:33:08;;;;;;;25.67;8.02;;;;;;;2.81;100.00;102349.53;5019535;28;20022;-70
2022/04/28 02:35:18;;;;;;;17.30;7.32;;;;;;;2.74;100.00;102344.56;5008693;28;20397;-70
2022/04/28 02:37:45;;;;;;;15.85;7.43;;;;;;;2.71;100.00;102346.47;5018443;28;20022;-70
2022/04/28 02:40:11;;;;;;;16.95;7.80;;;;;;;2.67;100.00;102350.16;5007915;28;20391;-70
2022/04/28 02:42:36;;;;;;;15.57;7.30;;;;;;;2.66;100.00;102348.47;5018946;28;20017;-70
2022/04/28 02:45:02;;;;;;;19.53;8.20;;;;;;;2.58;100.00;102354.13;5006376;28;20423;-70
2022/04/28 02:47:27;;;;;;;19.20;9.02;;;;;;;2.48;100.00;102347.53;5019518;28;20061;-70
2022/04/28 02:49:53;;;;;;;16.65;7.55;;;;;;;2.50;100.00;102348.31;5000567;28;20041;-70
2022/04/28 02:52:18;;;;;;;22.50;8.37;;;;;;;2.49;100.00;102346.63;5008399;28;20095;-70
2022/04/28 02:54:48;;;;;;;17.13;8.02;;;;;;;2.53;100.00;102356.97;5017540;28;20067;-70
2022/04/28 02:57:14;;;;;;;26.92;11.82;;;;;;;2.55;100.00;102354.22;4991720;28;20585;-70
2022/04/28 02:59:41;;;;;;;26.92;9.77;;;;;;;2.61;100.00;102361.88;5018395;28;20390;-70
2022/04/28 03:02:07;;;;;;;22.87;8.57;;;;;;;2.58;100.00;102362.03;5006880;28;20029;-70
2022/04/28 03:04:32;;;;;;;28.00;9.50;;;;;;;2.56;100.00;102366.50;5017003;28;20580;-70
2022/04/28 03:12:29;;;;;;;16.90;7.35;;;;;;;2.57;100.00;102367.34;5000706;28;20102;-70
2022/04/28 03:15:09;;;;;;;16.05;7.22;;;;;;;2.56;100.00;102371.78;5016096;28;20030;-70
2022/04/28 03:17:35;;;;;;;22.92;8.45;;;;;;;2.49;100.00;102365.09;5008420;28;20533;-70
2022/04/28 03:20:00;;;;;;;19.20;9.20;;;;;;;2.49;100.00;102371.19;5005980;28;20283;-70
2022/04/28 03:22:26;;;;;;;17.67;7.83;;;;;;;2.46;100.00;102367.88;5020244;28;20552;-70
2022/04/28 03:24:52;;;;;;;21.80;8.30;;;;;;;2.39;100.00;102359.38;5016865;28;20041;-70
2022/04/28 03:27:17;;;;;;;16.80;7.60;;;;;;;2.40;100.00;102360.22;5007827;28;20041;-70
2022/04/28 03:29:44;;;;;;;21.38;8.43;;;;;;;2.40;100.00;102354.97;5017626;28;20279;-70
2022/04/28 03:32:10;;;;;;;21.08;8.95;;;;;;;2.36;100.00;102354.22;5006403;28;20034;-70
2022/04/28 03:34:55;;;;;;;16.75;8.13;;;;;;;2.37;100.00;102355.97;5016363;28;20475;-70
2022/04/28 03:37:21;;;;;;;18.08;9.05;;;;;;;2.34;100.00;102356.06;4999567;28;20041;-70
2022/04/28 03:39:47;;;;;;;23.27;9.18;;;;;;;2.33;100.00;102357.00;5015286;28;20044;-70
2022/04/28 03:42:17;;;;;;;22.95;9.80;;;;;;;2.31;100.00;102369.41;4990952;28;20415;-70
2022/04/28 03:44:42;;;;;;;20.23;9.38;;;;;;;2.32;100.00;102379.03;5018978;28;20538;-70
2022/04/28 03:47:08;;;;;;;22.03;9.53;;;;;;;2.29;100.00;102371.25;5006641;28;20022;-70
2022/04/28 03:49:34;;;;;;;21.87;8.73;;;;;;;2.23;100.00;102374.19;5018541;28;20284;-70
2022/04/28 03:52:01;;;;;;;19.65;9.90;;;;;;;2.23;100.00;102371.53;5015479;28;20284;-70
2022/04/28 03:54:28;;;;;;;18.65;8.85;;;;;;;2.23;100.00;102369.75;5018466;28;20441;-70
2022/04/28 03:56:53;;;;;;;19.98;7.88;;;;;;;2.24;100.00;102375.88;5015715;28;20033;-70
2022/04/28 03:59:19;;;;;;;18.48;9.25;;;;;;;2.30;100.00;102380.88;5018350;28;20083;-70
2022/04/28 04:02:03;;;;;;;17.85;8.27;;;;;;;2.30;100.00;102386.16;5014855;28;20453;-70
2022/04/28 04:04:29;;;;;;;22.15;9.55;;;;;;;2.30;100.00;102389.63;5019571;28;20041;-69
2022/04/28 04:07:05;;;;;;;19.60;7.72;;;;;;;2.32;100.00;102384.31;5001658;28;20087;-70
2022/04/28 04:09:33;;;;;;;17.60;8.45;;;;;;;2.36;100.00;102396.41;5019730;28;20128;-70
2022/04/28 04:11:59;;;;;;;23.20;9.85;;;;;;;2.44;100.00;102396.09;5015189;28;20136;-69
2022/04/28 04:14:32;;;;;;;23.48;9.75;;;;;;;2.48;100.00;102403.78;5013007;28;20115;-69
2022/04/28 04:16:58;;;;;;;19.40;10.23;;;;;;;2.58;100.00;102406.00;4986929;28;20064;-71
2022/04/28 04:19:28;;;;;;;24.92;9.20;;;;;;;2.61;100.00;102401.44;4985809;28;20061;-70
2022/04/28 04:21:54;;;;;;;;;;;;;;;2.68;100.00;102413.41;4998959;28;20076;-70
2022/04/28 04:24:20;;;;;;;21.42;9.32;;;;;;;2.70;100.00;102402.78;5018570;28;20381;-69
2022/04/28 04:26:45;;;;;;;18.70;8.25;;;;;;;2.73;100.00;102415.81;5013119;28;20026;-70
2022/04/28 04:29:17;;;;;;;18.30;8.90;;;;;;;2.77;100.00;102409.50;5007342;28;20033;-70
2022/04/28 04:34:53;;;;;;;20.77;9.25;;;;;;;2.95;100.00;102415.69;5003910;28;20030;-70
2022/04/28 04:37:22;;;;;;;30.48;9.40;;;;;;;3.00;100.00;102412.81;4999220;28;20061;-70
2022/04/28 04:39:48;;;;;;;;;;;;;;;3.08;100.00;102406.25;5010086;28;20022;-70
2022/04/28 04:42:15;;;;;;;20.67;9.20;;;;;;;3.15;100.00;102402.38;5008332;28;19922;-70
2022/04/28 04:44:40;;;;;;;23.98;8.68;;;;;;;3.24;100.00;102406.38;5015011;28;20036;-72
2022/04/28 04:47:08;;;;;;;18.13;9.60;;;;;;;3.34;100.00;102412.91;5011341;28;20534;-69
2022/04/28 04:49:41;;;;;;;17.95;9.15;;;;;;;3.47;100.00;102417.63;5006797;28;20026;-72
2022/04/28 04:52:12;;;;;;;18.92;8.35;;;;;;;3.55;100.00;102421.56;5016822;28;20029;-70
2022/04/28 04:54:58;;;;;;;17.83;9.50;;;;;;;4.06;100.00;102426.09;5028707;28;20120;-70
2022/04/28 04:57:24;;;;;;;;;;;;;;;4.79;100.00;102423.97;5018523;28;20032;-70
2022/04/28 04:59:50;;;;;;;20.58;8.18;;;;;;;5.01;100.00;102418.34;5010740;28;19909;-70
2022/04/28 05:02:16;;;;;;;28.90;11.68;;;;;;;4.85;100.00;102405.97;5017153;28;20054;-70
2022/04/28 05:04:59;;;;;;;22.30;10.80;;;;;;;5.30;100.00;102403.47;5016357;28;20052;-70
2022/04/28 05:07:42;;;;;;;25.00;9.35;;;;;;;6.24;100.00;102404.13;5007514;28;20040;-73
2022/04/28 05:10:08;;;;;;;15.88;9.27;;;;;;;7.26;100.00;102395.03;5007866;28;20034;-70
2022/04/28 05:12:33;;;;;;;15.50;8.57;;;;;;;8.07;100.00;102360.31;5007555;28;20113;-70
2022/04/28 05:15:08;;;;;;;14.82;8.18;;;;;;;8.77;100.00;102314.53;5012818;28;20030;-70
2022/04/28 05:17:39;;;;;;;13.18;7.28;;;;;;;9.58;100.00;102259.59;5015905;28;20032;-69
2022/04/28 05:20:31;;;;;;;15.90;6.60;;;;;;;10.20;100.00;102178.19;4990682;28;20072;-70
2022/04/28 05:23:28;;;;;;;16.50;7.65;;;;;;;10.85;97.75;102109.63;5003368;28;20120;-71
2022/04/28 05:26:12;;;;;;;13.70;6.45;;;;;;;10.82;91.15;102048.44;5019539;28;20514;-70
2022/04/28 05:28:56;;;;;;;13.07;6.60;;;;;;;11.14;89.19;102071.50;5019960;28;20123;-71
2022/04/28 05:31:31;;;;;;;13.40;5.40;;;;;;;11.89;83.57;102030.06;5018821;28;20044;-71
2022/04/28 05:34:03;;;;;;;11.75;5.70;;;;;;;12.48;78.13;101980.00;4999826;28;20037;-71
2022/04/28 05:36:38;;;;;;;14.85;6.45;;;;;;;12.51;74.69;101923.47;5014182;28;20479;-71
2022/04/28 05:39:04;;;;;;;13.48;6.18;;;;;;;12.91;73.65;101962.50;4991152;28;20111;-71
2022/04/28 05:41:29;;;;;;;17.10;6.53;;;;;;;13.01;70.89;101923.06;5015929;28;20033;-71
2022/04/28 05:46:41;;;;;;;14.18;5.78;;;;;;;13.48;67.64;101919.41;5016569;28;20394;-71
2022/04/28 05:49:07;;;;;;;12.30;6.80;;;;;;;13.38;68.28;101954.38;5013924;28;20053;-73
2022/04/28 05:51:33;;;;;;;13.23;6.20;;;;;;;13.66;66.28;101928.31;5020701;28;20164;-73
2022/04/28 05:53:58;;;;;;;11.10;5.93;;;;;;;13.55;66.09;101933.06;5007282;28;20136;-71
2022/04/28 05:56:25;;;;;;;13.95;5.93;;;;;;;13.30;66.20;101914.06;4987909;28;20034;-73
2022/04/28 05:58:56;;;;;;;12.70;5.72;;;;;;;13.28;67.57;101977.72;5021016;28;20025;-72
2022/04/28 06:01:40;;;;;;;10.40;5.70;;;;;;;13.65;66.63;101990.16;5005244;28;20060;-71
2022/04/28 06:04:07;;;;;;;8.88;6.72;;;;;;;14.09;64.30;101960.72;5000453;28;20037;-71
2022/04/28 06:06:34;;;;;;;15.10;6.10;;;;;;;14.04;63.92;101938.84;5013611;28;20022;-71
2022/04/28 06:09:01;;;;;;;13.20;7.25;;;;;;;13.80;64.31;101950.25;5016775;28;20037;-71
2022/04/28 06:11:27;;;;;;;11.35;6.03;;;;;;;14.04;63.14;101949.59;5020124;28;20036;-71
2022/04/28 06:13:53;;;;;;;14.63;7.00;;;;;;;14.02;62.77;101940.84;5017889;28;20030;-71
2022/04/28 06:16:38;;;;;;;17.48;6.13;;;;;;;13.81;63.29;101917.84;5008727;28;20263;-71
2022/04/28 06:19:19;;;;;;;14.52;5.93;;;;;;;14.27;63.19;102014.41;5005078;28;20033;-71
2022/04/28 06:22:03;;;;;;;18.15;5.95;;;;;;;14.82;61.11;101972.94;5015525;28;20076;-71
2022/04/28 06:24:34;;;;;;;17.23;7.90;;;;;;;14.64;61.00;101943.47;5006145;28;20038;-71
2022/04/28 06:26:59;;;;;;;12.18;5.50;;;;;;;14.66;61.66;101973.72;5011487;28;20045;-72
2022/04/28 06:29:26;;;;;;;13.10;6.35;;;;;;;13.26;64.70;101926.03;5006343;28;20543;-72
2022/04/28 06:31:54;;;;;;;19.20;5.65;;;;;;;14.17;66.69;102138.03;4988204;28;20037;-71
2022/04/28 06:34:39;;;;;;;13.35;7.05;;;;;;;13.97;64.00;102000.38;5007310;28;20061;-71
2022/04/28 06:37:06;;;;;;;;;;;;;;;13.83;63.88;101999.09;5005670;28;20046;-71
2022/04/28 06:39:33;;;;;;;12.13;5.65;;;;;;;13.61;64.32;102002.22;4997025;28;19955;-72
2022/04/28 06:41:59;;;;;;;17.13;6.20;;;;;;;13.13;64.70;101938.97;5032569;23;20112;-72
2022/04/28 06:44:44;;;;;;;13.27;6.90;;;;;;;13.70;66.33;102095.25;5023697;28;20045;-75
2022/04/28 06:47:33;;;;;;;12.27;6.05;;;;;;;14.48;64.62;102127.75;5018750;28;20048;-75
2022/04/28 06:50:17;;;;;;;7.30;5.80;;;;;;;14.71;61.00;102001.81;5032643;28;20044;-75
2022/04/28 06:53:01;;;;;;;13.10;6.25;;;;;;;13.01;66.53;101997.31;5015490;28;20522;-75
2022/04/28 06:55:31;;;;;;;13.10;5.78;;;;;;;13.33;69.77;102165.03;5002864;28;20083;-75
2022/04/28 06:57:56;;;;;;;16.30;6.73;;;;;;;13.34;68.74;102134.53;5005185;28;20033;-75
2022/04/28 07:00:29;;;;;;;11.52;5.63;;;;;;;13.33;68.25;102109.53;4985655;28;20030;-75
2022/04/28 07:02:55;;;;;;;11.87;5.90;;;;;;;14.02;67.70;102182.50;5005017;28;20034;-75
2022/04/28 07:05:22;;;;;;;10.75;6.05;;;;;;;13.80;67.01;102111.28;4995133;28;20076;-75
2022/04/28 07:07:47;;;;;;;15.63;5.80;;;;;;;13.49;68.75;102128.53;5005378;28;20045;-75
2022/04/28 07:10:19;;;;;;;14.77;5.85;;;;;;;13.88;68.75;102195.47;5005382;28;20565;-75
2022/04/28 07:12:46;;;;;;;10.70;5.18;;;;;;;14.13;67.45;102175.09;4989175;28;20037;-76
2022/04/28 07:15:29;;;;;;;14.05;5.85;;;;;;;13.94;67.08;102138.47;5001706;28;20076;-76
2022/04/28 07:18:15;;;;;;;18.48;5.95;;;;;;;13.85;67.66;102138.53;5005574;28;20452;-75
2022/04/28 07:20:41;;;;;;;11.82;5.63;;;;;;;12.80;71.52;102120.81;5005133;28;20049;-75
2022/04/28 07:23:08;;;;;;;9.18;6.35;;;;;;;12.89;73.57;102228.00;4985234;28;20055;-76
2022/04/28 07:25:33;;;;;;;10.40;5.27;;;;;;;13.33;74.69;102289.25;4985638;28;20918;-76
2022/04/28 07:27:59;;;;;;;7.20;4.30;;;;;;;13.96;72.17;102290.53;4984933;28;20117;-76
2022/04/28 07:30:44;;;;;;;14.70;5.70;;;;;;;14.47;69.68;102251.50;4986308;28;20046;-76
2022/04/28 07:33:18;;;;;;;13.23;5.35;;;;;;;13.32;71.66;102177.56;4985208;28;20030;-75
2022/04/28 07:36:02;;;;;;;13.82;4.97;;;;;;;13.15;75.91;102285.56;4984061;28;20092;-76
2022/04/28 07:38:46;;;;;;;8.82;5.20;;;;;;;13.18;73.75;102232.50;4986418;28;20049;-76
2022/04/28 07:41:23;;;;;;;20.55;6.47;;;;;;;13.03;75.07;102240.13;4980162;28;20585;-75
2022/04/28 07:43:49;;;;;;;12.23;4.63;;;;;;;13.41;74.49;102286.69;4984914;28;20065;-76
2022/04/28 07:46:14;;;;;;;15.33;6.00;;;;;;;13.14;73.33;102212.31;4985251;28;20054;-76
2022/04/28 07:48:40;;;;;;;12.13;4.33;;;;;;;13.45;75.69;102314.94;4984556;28;20069;-76
2022/04/28 07:51:06;;;;;;;15.10;3.70;;;;;;;14.49;71.21;102308.63;4966683;28;20283;-76
2022/04/28 07:53:32;;;;;;;10.93;3.78;;;;;;;14.36;70.42;102256.09;4985001;28;20274;-76
2022/04/28 07:56:10;;;;;;;7.35;3.75;;;;;;;14.80;67.05;102204.34;4984886;28;20018;-76
2022/04/28 07:58:37;;;;;;;5.88;3.50;;;;;;;14.95;65.98;102196.56;4981956;28;20035;-76
2022/04/28 08:01:24;;;;;;;8.27;3.90;;;;;;;14.94;63.98;102117.72;4980473;28;20069;-76
2022/04/28 08:03:50;;;;;;;7.70;4.60;;;;;;;14.80;62.45;102052.91;4968791;28;20037;-76
2022/04/28 08:06:16;;;;;;;14.60;4.30;;;;;;;14.29;63.57;102026.69;4984590;28;20026;-76
2022/04/28 08:08:42;;;;;;;8.25;3.67;;;;;;;14.23;64.59;102099.81;4984752;28;20038;-75
2022/04/28 08:11:08;;;;;;;8.03;4.70;;;;;;;14.89;64.41;102181.03;4984600;28;20305;-76
2022/04/28 08:13:34;;;;;;;;;;;;;;;15.06;62.02;102087.88;4985221;28;20892;-76
2022/04/28 08:16:09;;;;;;;;;;;;;;;14.06;63.24;102001.31;4967352;28;20326;-75
2022/04/28 08:18:45;;;;;;;12.93;4.20;;;;;;;14.88;63.43;102147.09;4988756;28;19914;-76
2022/04/28 08:21:21;;;;;;;18.65;5.57;;;;;;;15.10;62.18;102106.25;4969570;28;20026;-76
2022/04/28 08:23:47;;;;;;;17.67;5.07;;;;;;;15.10;62.18;102129.59;4984572;28;20084;-76
2022/04/28 08:26:13;;;;;;;10.50;4.00;;;;;;;15.46;61.55;102142.91;4984437;28;20026;-76
2022/04/28 08:28:41;;;;;;;10.25;5.07;;;;;;;14.75;62.42;102083.00;4968746;28;20034;-75
2022/04/28 08:31:07;;;;;;;12.63;4.95;;;;;;;15.36;61.44;102121.50;4984871;28;20030;-73
2022/04/28 08:33:32;;;;;;;12.03;4.40;;;;;;;15.15;62.69;102160.41;4965441;28;20420;-75
2022/04/28 08:35:58;;;;;;;11.02;4.03;;;;;;;15.91;60.79;102156.06;4984886;28;20114;-76
2022/04/28 08:38:24;;;;;;;10.17;4.77;;;;;;;15.85;58.33;102051.72;4968753;28;20161;-76
2022/04/28 08:40:54;;;;;;;6.75;3.95;;;;;;;15.95;57.44;102011.16;4986869;28;20026;-76
2022/04/28 08:43:41;;;;;;;9.52;3.78;;;;;;;16.21;58.71;102108.84;4990270;28;20046;-76
2022/04/28 08:48:55;;;;;;;11.20;3.88;;;;;;;16.16;58.27;102086.94;4988761;28;20093;-76
2022/04/28 08:51:25;;;;;;;7.63;4.07;;;;;;;16.63;58.51;102166.31;4988645;28;20765;-76
2022/04/28 08:53:53;;;;;;;9.43;4.13;;;;;;;17.16;55.98;102100.22;4972576;28;20022;-76
2022/04/28 08:56:21;;;;;;;11.30;4.43;;;;;;;18.02;54.16;102120.09;4969229;28;20027;-76
2022/04/28 08:58:47;;;;;;;13.77;4.95;;;;;;;17.41;53.12;101948.94;4986813;28;20065;-76
2022/04/28 09:01:13;;;;;;;12.15;6.20;;;;;;;15.74;54.04;101767.47;4969242;28;20027;-76
2022/04/28 09:03:59;;;;;;;7.85;4.97;;;;;;;16.52;55.07;101976.09;4988342;28;20486;-76
2022/04/28 09:06:44;;;;;;;;;;;;;;;16.21;57.26;102043.34;4990347;28;20068;-77
2022/04/28 09:09:28;;;;;;;10.43;4.47;;;;;;;16.77;55.41;102051.56;4989713;28;19925;-76
2022/04/28 09:12:12;;;;;;;13.82;5.43;;;;;;;16.98;54.50;101994.38;4981756;28;20462;-76
2022/04/28 09:15:20;;;;;;;7.93;4.25;;;;;;;17.70;52.71;102027.41;4988537;28;20097;-76
2022/04/28 09:17:51;;;;;;;8.45;4.18;;;;;;;18.06;52.35;102059.28;4973093;28;20030;-76
2022/04/28 09:20:21;;;;;;;19.63;5.70;;;;;;;17.86;51.69;101956.25;4988263;28;20081;-76
2022/04/28 09:22:52;;;;;;;12.80;6.13;;;;;;;17.90;50.95;101951.31;4988165;28;20133;-76
2022/04/28 09:25:21;;;;;;;7.82;5.15;;;;;;;18.24;49.50;101890.53;4988196;28;20038;-75
2022/04/28 09:27:51;;;;;;;11.10;5.90;;;;;;;18.84;49.79;102011.25;4980325;28;20419;-76
2022/04/28 09:30:22;;;;;;;11.85;5.70;;;;;;;18.79;48.17;101897.34;4987897;28;20026;-76
2022/04/28 09:32:58;;;;;;;14.68;6.38;;;;;;;18.54;47.61;101835.44;4988006;28;20026;-75
2022/04/28 09:35:50;;;;;;;11.50;4.80;;;;;;;18.98;47.41;101888.63;4986951;28;20136;-75
2022/04/28 09:38:39;;;;;;;9.65;5.50;;;;;;;19.02;46.80;101840.38;4982194;28;20072;-76
2022/04/28 09:43:56;;;;;;;10.48;5.95;;;;;;;18.90;46.74;101850.03;4987612;28;20035;-76
2022/04/28 09:46:25;;;;;;;15.25;6.47;;;;;;;18.70;47.23;101793.78;4979966;28;20023;-76
2022/04/28 09:48:54;;;;;;;14.82;6.68;;;;;;;18.55;48.18;101856.03;4972198;28;20041;-76
2022/04/28 09:51:35;;;;;;;10.73;5.80;;;;;;;19.51;46.03;101907.31;4967480;28;20022;-76
2022/04/28 09:54:17;;;;;;;14.00;7.45;;;;;;;18.30;46.75;101731.13;4967800;28;20048;-76
2022/04/28 09:56:52;;;;;;;14.63;5.75;;;;;;;19.14;46.52;101878.63;4987820;28;20038;-76
2022/04/28 09:59:22;;;;;;;9.30;5.70;;;;;;;19.16;46.58;101857.59;4987402;28;20061;-76
2022/04/28 10:01:49;;;;;;;12.20;5.80;;;;;;;18.31;47.55;101810.41;4987107;28;20034;-76
2022/04/28 10:04:15;;;;;;;16.50;6.20;;;;;;;18.29;47.22;101747.56;4988535;28;20030;-77
2022/04/28 10:07:06;;;;;;;19.10;7.18;;;;;;;17.96;48.39;101807.41;4980356;28;20125;-76
2022/04/28 10:09:38;;;;;;;9.55;6.13;;;;;;;18.38;46.32;101730.22;4987414;28;20034;-76
2022/04/28 10:12:14;;;;;;;13.15;5.68;;;;;;;18.88;46.64;101852.09;4986845;28;20054;-76
2022/04/28 10:14:59;;;;;;;10.68;5.50;;;;;;;18.68;47.59;101900.50;4973564;28;20089;-76
2022/04/28 10:17:37;;;;;;;18.15;6.43;;;;;;;19.24;46.47;101897.25;4987310;28;20032;-77
2022/04/28 10:20:08;;;;;;;20.10;6.13;;;;;;;19.61;46.20;101956.59;4995826;28;20507;-76
2022/04/28 10:22:50;;;;;;;14.15;6.60;;;;;;;19.89;45.67;101920.59;4986974;28;20065;-76
2022/04/28 10:34:33;;;;;;;12.40;6.70;;;;;;;20.51;44.32;101913.56;4962608;28;20410;-76
2022/04/28 10:37:03;;;;;;;13.25;6.40;;;;;;;20.02;44.29;101831.28;4981158;28;20042;-76
2022/04/28 10:39:45;;;;;;;14.80;6.97;;;;;;;19.68;44.32;101710.16;4986583;28;20161;-76
2022/04/28 10:42:36;;;;;;;13.30;5.68;;;;;;;20.76;44.98;101989.88;4983310;28;20030;-76
2022/04/28 10:45:07;;;;;;;15.40;6.07;;;;;;;19.44;44.52;101707.91;4956923;28;20553;-76
2022/04/28 10:47:37;;;;;;;13.05;6.40;;;;;;;19.46;44.99;101743.75;4988072;28;20049;-77
2022/04/28 10:50:19;;;;;;;13.65;5.95;;;;;;;19.81;45.60;101882.81;4986569;28;20037;-76
2022/04/28 10:52:59;;;;;;;8.57;5.50;;;;;;;20.03;45.11;101867.34;4986275;28;20074;-76
2022/04/28 10:55:33;;;;;;;12.52;6.18;;;;;;;20.53;44.00;101873.47;4986653;28;20483;-76
2022/04/28 10:58:17;;;;;;;13.93;6.47;;;;;;;20.33;45.46;101915.94;4970265;28;20630;-76
2022/04/28 11:00:51;;;;;;;14.30;6.93;;;;;;;20.28;43.85;101790.97;4986638;28;20038;-76
2022/04/28 11:03:42;;;;;;;18.60;6.53;;;;;;;20.29;44.07;101798.06;4986104;28;20035;-76
2022/04/28 11:06:12;;;;;;;12.23;6.20;;;;;;;20.43;43.78;101816.06;4983305;28;20096;-76
2022/04/28 11:08:44;;;;;;;11.20;6.80;;;;;;;19.22;43.69;101559.03;4999622;28;20134;-76
2022/04/28 11:11:14;;;;;;;10.85;7.57;;;;;;;19.35;44.85;101661.19;4969539;28;20132;-76
2022/04/28 11:13:43;;;;;;;12.35;5.93;;;;;;;19.99;44.39;101782.03;4986133;28;20044;-76
2022/04/28 11:16:10;;;;;;;11.55;6.15;;;;;;;19.47;44.69;101708.34;4986402;28;20022;-76
2022/04/28 11:18:35;;;;;;;10.13;6.55;;;;;;;20.22;44.61;101831.38;4969934;28;20606;-76
2022/04/28 11:21:02;;;;;;;10.23;5.55;;;;;;;20.36;43.64;101796.19;4985959;28;20038;-76
2022/04/28 11:23:41;;;;;;;13.50;6.07;;;;;;;19.82;43.86;101701.06;4987199;28;20085;-76
2022/04/28 11:26:19;;;;;;;14.10;6.40;;;;;;;20.53;44.27;101876.19;4971590;28;20125;-76
2022/04/28 11:28:45;;;;;;;13.38;6.38;;;;;;;19.52;45.03;101710.44;4969744;28;20045;-76
2022/04/28 11:31:18;;;;;;;13.80;6.47;;;;;;;20.94;44.37;101954.06;4987061;28;20019;-76
2022/04/28 11:33:46;;;;;;;15.35;6.25;;;;;;;21.61;41.68;101859.19;4977820;28;20026;-76
2022/04/28 11:36:24;;;;;;;15.00;6.65;;;;;;;21.96;41.56;101910.63;4986917;28;20468;-76
2022/04/28 11:38:52;;;;;;;16.73;6.72;;;;;;;21.38;40.88;101716.44;4987017;28;20558;-76
2022/04/28 11:41:23;;;;;;;10.13;7.20;;;;;;;20.07;42.30;101546.06;4985519;28;20475;-77
2022/04/28 11:43:50;;;;;;;14.13;5.97;;;;;;;20.73;44.10;101853.78;4985738;28;20038;-76
2022/04/28 11:46:16;;;;;;;;;;;;;;;21.19;41.92;101771.59;4986520;28;20022;-76
2022/04/28 11:48:42;;;;;;;12.18;6.80;;;;;;;21.50;41.06;101771.84;4977460;28;19936;-76
2022/04/28 11:51:07;;;;;;;12.98;6.55;;;;;;;21.29;41.43;101766.59;4982689;28;20034;-76
2022/04/28 11:53:45;;;;;;;15.55;6.32;;;;;;;21.08;41.01;101650.88;4982900;28;20042;-76
2022/04/28 11:56:18;;;;;;;11.88;5.72;;;;;;;20.51;42.27;101663.13;4980416;28;20404;-77
2022/04/28 11:58:49;;;;;;;10.05;6.43;;;;;;;20.58;42.60;101678.44;4984380;28;20030;-75
2022/04/28 12:01:15;;;;;;;12.55;6.80;;;;;;;20.49;42.72;101676.09;4964521;28;20504;-76
2022/04/28 12:03:50;;;;;;;16.15;8.15;;;;;;;20.43;42.25;101643.31;4983672;28;20022;-76
2022/04/28 12:06:17;;;;;;;10.73;6.23;;;;;;;21.03;42.02;101751.97;4986763;28;20069;-76
2022/04/28 12:08:48;;;;;;;15.05;7.80;;;;;;;21.04;41.65;101720.22;4977584;28;20280;-76
2022/04/28 12:14:23;;;;;;;10.18;6.90;;;;;;;21.02;41.34;101682.41;4956817;28;20053;-76
2022/04/28 12:19:54;;;;;;;12.85;6.95;;;;;;;21.48;41.26;101770.38;4984861;28;20164;-76
2022/04/28 12:22:39;;;;;;;9.93;6.32;;;;;;;21.83;40.85;101757.38;4986070;28;20046;-76